createdAt,value
2022-10-29T00:01:22.407Z,183.68
2022-10-29T00:03:51.683Z,186.23
2022-10-29T00:06:20.406Z,181.32
2022-10-29T00:08:49.411Z,177.32
2022-10-29T00:11:21.454Z,187.57
2022-10-29T00:13:55.771Z,191.75
2022-10-29T00:16:27.385Z,191.63
2022-10-29T00:18:57.694Z,189.60
2022-10-29T00:21:28.019Z,191.27
2022-10-29T00:23:59.172Z,195.18
2022-10-29T00:26:30.726Z,194.80
2022-10-29T00:29:00.169Z,198.80
2022-10-29T00:31:29.164Z,212.25
2022-10-29T00:33:58.539Z,210.98
2022-10-29T00:36:30.078Z,204.60
2022-10-29T00:38:59.585Z,203.20
2022-10-29T00:41:30.606Z,211.25
2022-10-29T00:44:23.823Z,211.05
2022-10-29T00:46:58.695Z,213.38
2022-10-29T00:49:28.952Z,219.30
2022-10-29T00:51:58.600Z,217.55
2022-10-29T00:54:29.535Z,217.05
2022-10-29T00:57:15.867Z,218.75
2022-10-29T01:02:24.848Z,218.60
2022-10-29T01:04:56.505Z,218.20
2022-10-29T01:07:28.753Z,209.27
2022-10-29T01:10:00.192Z,203.07
2022-10-29T01:12:39.864Z,200.57
2022-10-29T01:15:35.849Z,202.73
2022-10-29T01:18:23.292Z,200.27
2022-10-29T01:21:10.246Z,202.30
2022-10-29T01:24:09.947Z,199.63
2022-10-29T01:27:07.195Z,203.50
2022-10-29T01:29:46.259Z,204.93
2022-10-29T01:32:18.409Z,200.48
2022-10-29T01:35:00.312Z,207.52
2022-10-29T01:37:43.053Z,203.98
2022-10-29T01:40:36.694Z,200.23
2022-10-29T01:43:39.211Z,207.88
2022-10-29T01:46:19.324Z,207.07
2022-10-29T01:48:56.526Z,206.15
2022-10-29T01:51:30.766Z,205.30
2022-10-29T01:54:02.824Z,206.32
2022-10-29T01:56:32.711Z,206.93
2022-10-29T01:59:04.265Z,212.63
2022-10-29T02:01:57.316Z,214.83
2022-10-29T02:04:47.440Z,213.27
2022-10-29T02:07:26.464Z,224.85
2022-10-29T02:10:27.231Z,218.52
2022-10-29T02:12:58.722Z,214.98
2022-10-29T02:16:00.124Z,214.40
2022-10-29T02:18:30.178Z,218.00
2022-10-29T02:20:59.580Z,219.93
2022-10-29T02:23:30.110Z,211.70
2022-10-29T02:25:59.398Z,208.27
2022-10-29T02:28:28.719Z,212.27
2022-10-29T02:30:57.972Z,216.57
2022-10-29T02:33:27.352Z,219.30
2022-10-29T02:35:56.425Z,231.88
2022-10-29T02:38:26.648Z,247.02
2022-10-29T02:40:56.042Z,238.95
2022-10-29T02:43:25.524Z,236.98
2022-10-29T02:46:12.403Z,225.77
2022-10-29T02:48:42.686Z,223.85
2022-10-29T02:51:12.372Z,233.60
2022-10-29T02:53:41.844Z,231.98
2022-10-29T02:56:12.415Z,233.13
2022-10-29T02:58:41.738Z,235.52
2022-10-29T03:01:10.921Z,243.35
2022-10-29T03:03:40.376Z,234.93
2022-10-29T03:06:17.368Z,241.25
2022-10-29T03:08:47.422Z,237.70
2022-10-29T03:11:16.849Z,244.95
2022-10-29T03:13:45.944Z,261.17
2022-10-29T03:16:17.271Z,264.65
2022-10-29T03:18:46.524Z,272.33
2022-10-29T03:21:15.636Z,287.08
2022-10-29T03:23:45.516Z,285.98
2022-10-29T03:26:14.596Z,283.45
2022-10-29T03:31:13.608Z,287.63
2022-10-29T03:33:42.943Z,288.77
2022-10-29T03:36:12.444Z,279.90
2022-10-29T03:38:41.992Z,284.08
2022-10-29T03:41:11.993Z,276.25
2022-10-29T03:43:42.200Z,279.33
2022-10-29T03:46:11.753Z,268.67
2022-10-29T03:48:41.595Z,265.05
2022-10-29T03:51:12.178Z,264.35
2022-10-29T03:53:41.854Z,253.05
2022-10-29T03:56:12.295Z,250.55
2022-10-29T03:58:42.852Z,237.82
2022-10-29T04:01:12.582Z,229.00
2022-10-29T04:03:43.750Z,224.05
2022-10-29T04:06:16.585Z,215.73
2022-10-29T04:08:46.148Z,211.43
2022-10-29T04:11:15.742Z,207.40
2022-10-29T04:13:45.119Z,199.30
2022-10-29T04:16:14.386Z,204.10
2022-10-29T04:18:43.692Z,190.32
2022-10-29T04:29:41.427Z,78.97
2022-10-29T04:32:10.861Z,74.05
2022-10-29T04:34:40.317Z,74.20
2022-10-29T04:37:09.953Z,73.60
2022-10-29T04:39:39.349Z,75.60
2022-10-29T04:42:08.817Z,76.88
2022-10-29T04:44:38.962Z,86.43
2022-10-29T04:47:08.281Z,91.03
2022-10-29T04:49:37.999Z,102.38
2022-10-29T04:52:07.494Z,105.60
2022-10-29T04:54:36.723Z,105.18
2022-10-29T04:57:06.149Z,84.07
2022-10-29T04:59:35.674Z,73.13
2022-10-29T05:02:04.992Z,62.20
2022-10-29T05:04:34.512Z,54.08
2022-10-29T05:07:04.012Z,48.03
2022-10-29T05:09:33.495Z,46.30
2022-10-29T05:12:02.812Z,42.92
2022-10-29T05:14:33.079Z,43.95
2022-10-29T05:17:02.339Z,45.67
2022-10-29T05:19:31.972Z,50.17
2022-10-29T05:22:01.747Z,51.72
2022-10-29T05:24:30.787Z,40.58
2022-10-29T05:27:00.562Z,48.75
2022-10-29T05:29:29.899Z,51.72
2022-10-29T05:31:59.411Z,51.63
2022-10-29T05:34:28.827Z,50.15
2022-10-29T05:36:58.592Z,50.40
2022-10-29T05:39:27.662Z,47.05
2022-10-29T05:41:57.632Z,49.50
2022-10-29T05:44:26.795Z,47.88
2022-10-29T05:46:57.935Z,49.42
2022-10-29T05:49:27.247Z,49.70
2022-10-29T05:51:56.166Z,56.75
2022-10-29T05:54:26.412Z,60.75
2022-10-29T05:56:55.976Z,57.65
2022-10-29T05:59:31.016Z,47.50
2022-10-29T06:02:03.034Z,50.30
2022-10-29T06:04:32.468Z,49.60
2022-10-29T06:07:02.988Z,46.15
2022-10-29T06:09:33.482Z,54.03
2022-10-29T06:12:02.940Z,52.25
2022-10-29T06:14:32.440Z,48.38
2022-10-29T06:17:03.465Z,48.40
2022-10-29T06:19:33.064Z,45.00
2022-10-29T06:22:02.929Z,40.78
2022-10-29T06:24:32.483Z,46.42
2022-10-29T06:27:01.556Z,41.65
2022-10-29T06:29:31.908Z,40.17
2022-10-29T06:32:01.442Z,38.15
2022-10-29T06:34:30.751Z,39.83
2022-10-29T06:37:03.329Z,40.90
2022-10-29T06:39:32.882Z,39.45
2022-10-29T06:42:02.184Z,39.10
2022-10-29T06:44:50.896Z,34.55
2022-10-29T06:47:21.915Z,32.45
2022-10-29T06:49:51.206Z,30.58
2022-10-29T06:52:20.434Z,32.17
2022-10-29T06:55:09.127Z,33.88
2022-10-29T06:57:39.595Z,32.58
2022-10-29T07:00:09.530Z,34.08
2022-10-29T07:02:38.746Z,30.23
2022-10-29T07:05:08.185Z,32.03
2022-10-29T07:07:38.148Z,31.63
2022-10-29T07:10:09.657Z,32.03
2022-10-29T07:12:57.625Z,34.28
2022-10-29T07:15:45.768Z,29.58
2022-10-29T07:18:14.922Z,31.38
2022-10-29T07:20:46.122Z,30.63
2022-10-29T07:23:15.876Z,30.03
2022-10-29T07:25:45.040Z,30.40
2022-10-29T07:28:21.864Z,32.53
2022-10-29T07:30:51.864Z,28.00
2022-10-29T07:33:20.938Z,27.05
2022-10-29T07:35:49.878Z,30.17
2022-10-29T07:38:19.758Z,30.42
2022-10-29T07:40:51.166Z,28.25
2022-10-29T07:43:22.742Z,25.17
2022-10-29T07:45:52.896Z,28.90
2022-10-29T07:48:22.992Z,29.10
2022-10-29T07:50:52.215Z,27.75
2022-10-29T07:53:21.460Z,25.88
2022-10-29T07:55:55.129Z,26.20
2022-10-29T07:58:25.230Z,29.95
2022-10-29T08:00:55.114Z,27.90
2022-10-29T08:03:24.587Z,24.25
2022-10-29T08:05:56.617Z,27.00
2022-10-29T08:08:27.644Z,25.08
2022-10-29T08:11:02.614Z,24.40
2022-10-29T08:13:32.380Z,26.60
2022-10-29T08:16:01.922Z,26.65
2022-10-29T08:18:31.095Z,26.08
2022-10-29T08:21:00.347Z,28.60
2022-10-29T08:23:29.467Z,24.77
2022-10-29T08:26:01.437Z,23.48
2022-10-29T08:28:33.153Z,22.60
2022-10-29T08:31:05.633Z,23.92
2022-10-29T08:33:34.540Z,26.85
2022-10-29T08:36:03.825Z,25.10
2022-10-29T08:38:33.503Z,26.25
2022-10-29T08:41:19.457Z,23.67
2022-10-29T08:44:07.918Z,24.08
2022-10-29T08:46:49.374Z,23.48
2022-10-29T08:49:49.046Z,25.75
2022-10-29T08:52:27.990Z,24.55
2022-10-29T08:55:20.869Z,24.38
2022-10-29T08:58:02.432Z,23.48
2022-10-29T09:00:39.980Z,25.17
2022-10-29T09:03:14.163Z,24.60
2022-10-29T09:06:02.550Z,26.48
2022-10-29T09:09:09.232Z,25.73
2022-10-29T09:12:05.872Z,28.52
2022-10-29T09:14:41.280Z,26.52
2022-10-29T09:17:47.666Z,27.33
2022-10-29T09:20:34.348Z,25.52
2022-10-29T09:23:30.803Z,24.08
2022-10-29T09:26:07.431Z,25.92
2022-10-29T09:28:56.953Z,26.48
2022-10-29T09:31:42.750Z,25.40
2022-10-29T09:34:23.723Z,26.20
2022-10-29T09:36:52.889Z,28.02
2022-10-29T09:39:41.200Z,29.15
2022-10-29T09:42:28.445Z,28.58
2022-10-29T09:45:04.458Z,27.40
2022-10-29T09:47:45.474Z,27.75
2022-10-29T09:50:40.764Z,27.48
2022-10-29T09:53:10.365Z,29.00
2022-10-29T09:55:45.742Z,27.10
2022-10-29T09:58:22.953Z,26.73
2022-10-29T10:00:56.437Z,27.85
2022-10-29T10:03:56.643Z,31.77
2022-10-29T10:06:26.670Z,27.45
2022-10-29T10:09:02.903Z,28.17
2022-10-29T10:11:50.898Z,28.38
2022-10-29T10:14:23.178Z,30.30
2022-10-29T10:17:11.263Z,30.02
2022-10-29T10:19:49.842Z,29.75
2022-10-29T10:22:25.780Z,27.73
2022-10-29T10:25:05.191Z,28.10
2022-10-29T10:27:34.739Z,29.80
2022-10-29T10:30:06.808Z,28.65
2022-10-29T10:32:38.911Z,30.35
2022-10-29T10:35:32.039Z,29.60
2022-10-29T10:38:14.220Z,27.42
2022-10-29T10:40:44.159Z,28.13
2022-10-29T10:43:23.676Z,29.13
2022-10-29T10:46:05.358Z,27.63
2022-10-29T10:51:38.174Z,28.63
2022-10-29T10:54:26.211Z,30.63
2022-10-29T10:57:06.685Z,28.73
2022-10-29T10:59:50.876Z,29.08
2022-10-29T11:02:37.749Z,28.60
2022-10-29T11:05:27.563Z,30.63
2022-10-29T11:08:23.197Z,29.45
2022-10-29T11:10:57.845Z,33.53
2022-10-29T11:13:34.366Z,30.10
2022-10-29T11:16:21.210Z,33.13
2022-10-29T11:19:02.124Z,31.23
2022-10-29T11:21:45.231Z,30.48
2022-10-29T11:24:14.358Z,32.95
2022-10-29T11:26:56.345Z,29.15
2022-10-29T11:29:53.361Z,29.45
2022-10-29T11:32:43.933Z,30.73
2022-10-29T11:35:23.898Z,30.25
2022-10-29T11:38:11.780Z,30.75
2022-10-29T11:40:56.020Z,30.08
2022-10-29T11:43:25.780Z,30.60
2022-10-29T11:46:15.602Z,33.28
2022-10-29T11:49:27.664Z,30.88
2022-10-29T11:52:13.143Z,29.93
2022-10-29T11:55:17.517Z,32.00
2022-10-29T11:57:56.433Z,32.22
2022-10-29T12:00:27.078Z,33.70
2022-10-29T12:03:13.888Z,33.42
2022-10-29T12:06:05.243Z,32.08
2022-10-29T12:08:59.237Z,31.80
2022-10-29T12:11:46.825Z,32.35
2022-10-29T12:14:26.171Z,31.05
2022-10-29T12:17:11.656Z,32.72
2022-10-29T12:19:58.684Z,32.25
2022-10-29T12:23:02.565Z,32.83
2022-10-29T12:25:49.727Z,34.05
2022-10-29T12:28:40.964Z,41.92
2022-10-29T12:31:18.735Z,38.17
2022-10-29T12:33:56.107Z,41.15
2022-10-29T12:36:57.693Z,38.30
2022-10-29T12:39:38.698Z,39.95
2022-10-29T12:42:28.608Z,40.38
2022-10-29T12:45:25.499Z,40.55
2022-10-29T12:48:22.003Z,38.50
2022-10-29T12:51:18.727Z,39.03
2022-10-29T12:54:05.740Z,41.10
2022-10-29T12:56:35.403Z,43.70
2022-10-29T12:59:25.253Z,43.67
2022-10-29T13:02:11.111Z,42.28
2022-10-29T13:05:12.260Z,41.83
2022-10-29T13:07:47.616Z,40.28
2022-10-29T13:10:27.260Z,39.67
2022-10-29T13:12:56.547Z,42.72
2022-10-29T13:15:39.872Z,44.92
2022-10-29T13:18:30.528Z,44.22
2022-10-29T13:20:59.986Z,45.25
2022-10-29T13:23:30.116Z,50.80
2022-10-29T13:26:06.437Z,50.72
2022-10-29T13:28:38.308Z,54.83
2022-10-29T13:31:07.731Z,55.22
2022-10-29T13:33:39.096Z,49.45
2022-10-29T13:36:33.143Z,50.80
2022-10-29T13:39:07.385Z,58.97
2022-10-29T13:41:45.140Z,49.08
2022-10-29T13:44:26.574Z,51.95
2022-10-29T13:47:04.109Z,52.72
2022-10-29T13:49:46.126Z,52.50
2022-10-29T13:52:21.111Z,52.92
2022-10-29T13:55:02.683Z,63.63
2022-10-29T13:57:53.850Z,49.95
2022-10-29T14:00:23.808Z,53.35
2022-10-29T14:03:15.130Z,49.45
2022-10-29T14:05:48.873Z,49.70
2022-10-29T14:08:39.747Z,50.10
2022-10-29T14:11:38.691Z,51.85
2022-10-29T14:14:28.595Z,48.25
2022-10-29T14:17:21.048Z,48.63
2022-10-29T14:19:52.831Z,48.35
2022-10-29T14:22:36.536Z,50.90
2022-10-29T14:25:31.276Z,50.97
2022-10-29T14:28:33.156Z,53.42
2022-10-29T14:31:13.580Z,51.35
2022-10-29T14:33:47.566Z,54.00
2022-10-29T14:36:20.634Z,54.17
2022-10-29T14:39:03.088Z,56.25
2022-10-29T14:41:33.821Z,54.47
2022-10-29T14:44:35.687Z,56.97
2022-10-29T14:47:15.233Z,58.38
2022-10-29T14:49:50.193Z,63.15
2022-10-29T14:52:36.406Z,63.28
2022-10-29T14:55:32.161Z,65.03
2022-10-29T14:58:09.370Z,81.20
2022-10-29T15:00:39.107Z,79.10
2022-10-29T15:03:09.169Z,77.70
2022-10-29T15:05:39.759Z,74.97
2022-10-29T15:08:17.591Z,74.03
2022-10-29T15:10:57.313Z,68.97
2022-10-29T15:13:30.531Z,66.55
2022-10-29T15:16:10.314Z,63.67
2022-10-29T15:18:40.737Z,61.33
2022-10-29T15:21:10.074Z,58.13
2022-10-29T15:23:46.618Z,57.92
2022-10-29T15:26:24.557Z,55.83
2022-10-29T15:28:58.486Z,55.20
2022-10-29T15:31:35.379Z,56.63
2022-10-29T15:34:30.887Z,55.53
2022-10-29T15:37:14.641Z,56.38
2022-10-29T15:39:58.959Z,55.28
2022-10-29T15:42:36.776Z,56.85
2022-10-29T15:45:18.033Z,54.10
2022-10-29T15:48:13.214Z,59.17
2022-10-29T15:50:47.366Z,59.80
2022-10-29T15:53:18.138Z,60.10
2022-10-29T15:55:47.561Z,57.15
2022-10-29T15:58:21.035Z,54.65
2022-10-29T16:00:51.297Z,57.00
2022-10-29T16:03:23.284Z,55.85
2022-10-29T16:06:05.104Z,55.92
2022-10-29T16:08:51.470Z,54.10
2022-10-29T16:11:22.178Z,57.70
2022-10-29T16:13:54.527Z,51.80
2022-10-29T16:16:26.918Z,53.55
2022-10-29T16:18:56.212Z,55.13
2022-10-29T16:21:27.434Z,51.78
2022-10-29T16:23:56.921Z,54.83
2022-10-29T16:26:27.475Z,53.78
2022-10-29T16:28:57.867Z,53.78
2022-10-29T16:31:29.451Z,54.72
2022-10-29T16:34:00.766Z,61.30
2022-10-29T16:36:30.129Z,56.42
2022-10-29T16:38:59.364Z,55.35
2022-10-29T16:41:29.254Z,55.60
2022-10-29T16:43:58.397Z,56.65
2022-10-29T16:46:28.226Z,54.90
2022-10-29T16:48:57.361Z,55.90
2022-10-29T16:51:26.411Z,56.17
2022-10-29T16:53:56.203Z,57.80
2022-10-29T16:56:25.245Z,60.25
2022-10-29T16:59:01.548Z,59.67
2022-10-29T17:01:31.468Z,59.30
2022-10-29T17:04:00.931Z,61.97
2022-10-29T17:06:30.172Z,58.35
2022-10-29T17:08:58.998Z,63.92
2022-10-29T17:11:28.310Z,62.63
2022-10-29T17:13:57.358Z,65.15
2022-10-29T17:16:27.147Z,63.10
2022-10-29T17:18:57.428Z,63.17
2022-10-29T17:21:26.878Z,64.47
2022-10-29T17:23:56.296Z,69.85
2022-10-29T17:26:25.532Z,68.15
2022-10-29T17:28:54.725Z,67.70
2022-10-29T17:31:24.195Z,63.25
2022-10-29T17:33:53.110Z,69.20
2022-10-29T17:36:22.470Z,71.07
2022-10-29T17:38:51.673Z,75.40
2022-10-29T17:41:20.817Z,73.28
2022-10-29T17:43:50.802Z,72.57
2022-10-29T17:46:19.648Z,79.78
2022-10-29T17:48:48.567Z,80.90
2022-10-29T17:51:17.908Z,88.35
2022-10-29T17:53:49.253Z,84.25
2022-10-29T17:56:21.168Z,84.30
2022-10-29T17:58:50.446Z,82.07
2022-10-29T18:01:22.112Z,89.28
2022-10-29T18:03:51.357Z,86.57
2022-10-29T18:06:20.409Z,85.57
2022-10-29T18:08:49.832Z,87.45
2022-10-29T18:11:21.246Z,91.28
2022-10-29T18:13:52.619Z,86.37
2022-10-29T18:16:24.218Z,89.85
2022-10-29T18:19:01.266Z,85.57
2022-10-29T18:21:32.790Z,88.07
2022-10-29T18:24:02.032Z,87.13
2022-10-29T18:26:33.301Z,83.53
2022-10-29T18:29:05.796Z,82.53
2022-10-29T18:31:36.330Z,86.60
2022-10-29T18:34:08.741Z,88.25
2022-10-29T18:36:38.462Z,89.57
2022-10-29T18:39:07.702Z,90.97
2022-10-29T18:41:38.071Z,91.18
2022-10-29T18:44:07.348Z,89.43
2022-10-29T18:46:36.935Z,98.07
2022-10-29T18:49:06.527Z,92.13
2022-10-29T18:51:35.617Z,94.15
2022-10-29T18:54:06.438Z,94.53
2022-10-29T18:56:35.980Z,96.90
2022-10-29T18:59:05.149Z,95.63
2022-10-29T19:01:39.296Z,95.38
2022-10-29T19:04:12.560Z,97.15
2022-10-29T19:06:42.458Z,94.05
2022-10-29T19:09:12.446Z,93.60
2022-10-29T19:11:42.619Z,96.20
2022-10-29T19:14:15.182Z,95.20
2022-10-29T19:16:44.586Z,92.22
2022-10-29T19:19:17.046Z,94.63
2022-10-29T19:21:48.472Z,96.30
2022-10-29T19:24:18.100Z,95.05
2022-10-29T19:26:47.126Z,92.25
2022-10-29T19:29:16.782Z,93.50
2022-10-29T19:31:47.613Z,96.43
2022-10-29T19:34:17.084Z,97.35
2022-10-29T19:36:48.073Z,98.13
2022-10-29T19:39:18.309Z,99.85
2022-10-29T19:41:47.438Z,102.00
2022-10-29T19:44:16.352Z,103.30
2022-10-29T19:46:45.671Z,102.88
2022-10-29T19:49:15.901Z,113.03
2022-10-29T19:51:47.518Z,105.45
2022-10-29T19:54:16.722Z,103.57
2022-10-29T19:56:45.722Z,107.05
2022-10-29T19:59:15.122Z,105.65
2022-10-29T20:01:45.346Z,106.30
2022-10-29T20:04:14.662Z,105.65
2022-10-29T20:06:44.524Z,103.03
2022-10-29T20:09:13.444Z,104.03
2022-10-29T20:11:42.962Z,105.32
2022-10-29T20:14:12.222Z,108.70
2022-10-29T20:16:42.022Z,106.53
2022-10-29T20:19:12.654Z,121.70
2022-10-29T20:21:42.298Z,110.38
2022-10-29T20:24:11.271Z,109.70
2022-10-29T20:26:40.368Z,127.05
2022-10-29T20:29:09.586Z,329.17
2022-10-29T20:31:41.432Z,141.50
2022-10-29T20:34:11.209Z,102.72
2022-10-29T20:36:40.780Z,103.65
2022-10-29T20:39:10.068Z,106.80
2022-10-29T20:41:39.976Z,107.72
2022-10-29T20:44:09.483Z,104.50
2022-10-29T20:46:42.568Z,104.05
2022-10-29T20:49:13.060Z,104.63
2022-10-29T20:51:42.085Z,105.72
2022-10-29T20:54:11.497Z,112.97
2022-10-29T20:56:40.738Z,123.25
2022-10-29T20:59:09.830Z,112.57
2022-10-29T21:01:39.188Z,99.95
2022-10-29T21:04:08.769Z,99.28
2022-10-29T21:06:38.064Z,105.95
2022-10-29T21:09:08.151Z,96.50
2022-10-29T21:11:37.356Z,175.23
2022-10-29T21:14:07.240Z,210.98
2022-10-29T21:16:36.269Z,329.95
2022-10-29T21:19:07.829Z,316.23
2022-10-29T21:21:37.324Z,242.85
2022-10-29T21:24:06.250Z,183.88
2022-10-29T21:26:36.086Z,129.15
2022-10-29T21:29:04.991Z,107.40
2022-10-29T21:31:34.141Z,102.85
2022-10-29T21:34:03.321Z,94.38
2022-10-29T21:36:32.494Z,101.90
2022-10-29T21:39:01.345Z,107.55
2022-10-29T21:41:31.275Z,126.78
2022-10-29T21:44:00.578Z,123.93
2022-10-29T21:46:30.289Z,119.15
2022-10-29T21:48:59.495Z,114.60
2022-10-29T21:51:28.539Z,104.90
2022-10-29T21:53:57.608Z,104.40
2022-10-29T21:56:26.582Z,101.03
2022-10-29T21:58:56.635Z,111.90
2022-10-29T22:01:26.156Z,107.45
2022-10-29T22:03:55.193Z,108.93
2022-10-29T22:06:28.557Z,109.00
2022-10-29T22:09:01.488Z,107.47
2022-10-29T22:11:30.646Z,105.63
2022-10-29T22:14:00.335Z,103.68
2022-10-29T22:16:29.525Z,106.55
2022-10-29T22:18:58.380Z,104.10
2022-10-29T22:21:28.282Z,107.50
2022-10-29T22:23:59.006Z,109.75
2022-10-29T22:26:30.165Z,111.22
2022-10-29T22:28:59.154Z,115.00
2022-10-29T22:31:28.449Z,120.90
2022-10-29T22:33:57.381Z,121.03
2022-10-29T22:36:29.456Z,117.00
2022-10-29T22:39:00.652Z,118.65
2022-10-29T22:41:31.405Z,122.07
2022-10-29T22:44:00.487Z,121.25
2022-10-29T22:46:31.112Z,124.38
2022-10-29T22:49:03.306Z,128.45
2022-10-29T22:51:34.829Z,119.32
2022-10-29T22:54:04.444Z,125.15
2022-10-29T22:56:35.969Z,131.18
2022-10-29T22:59:07.589Z,129.47
2022-10-29T23:01:42.114Z,125.28
2022-10-29T23:04:15.076Z,129.43
2022-10-29T23:06:44.242Z,125.47
2022-10-29T23:09:13.017Z,122.07
2022-10-29T23:11:42.341Z,123.32
2022-10-29T23:14:11.478Z,127.13
2022-10-29T23:16:40.636Z,133.40
2022-10-29T23:19:11.801Z,136.13
2022-10-29T23:21:41.343Z,131.40
2022-10-29T23:24:11.465Z,135.95
2022-10-29T23:26:40.666Z,141.45
2022-10-29T23:29:10.071Z,142.38
2022-10-29T23:31:39.140Z,144.38
2022-10-29T23:34:08.678Z,147.88
2022-10-29T23:36:37.818Z,150.80
2022-10-29T23:39:07.278Z,163.48
2022-10-29T23:41:36.238Z,168.15
2022-10-29T23:44:05.802Z,179.27
2022-10-29T23:46:34.966Z,178.07
2022-10-29T23:49:04.163Z,180.43
2022-10-29T23:51:36.074Z,185.38
2022-10-29T23:54:05.389Z,179.90
2022-10-29T23:56:34.698Z,179.30
2022-10-29T23:59:03.504Z,175.27
